Flight Sim Network - SKBO Airport Info

    SKBO (El Dorado International Airport)  Login to use Map Selector
   

  RUNWAY INFORMATION    |    Airport Elevation : 8361ft    |    LAT : 4.70159  /  LON : -74.1469
Runway Number 13R / 31L Runway Width 148' Runway Length 12467'
Lighted Runway Yes Runway StatusOpen Runway Surface Asphalt
Runway Number 13L / 31R Runway Width 148' Runway Length 12467'
Lighted Runway Yes Runway StatusOpen Runway Surface Asphalt
  CLOSE ALTERNATE AIRPORTS
ICAODistanceAirport NameLongest RWRW SurfaceMAP
SKMA8NMMadrid Air Base6070FTAsphalt
SKGY8NMGuaymaral Airport5643FTAsphalt
SKTI41NMTolemaida Air Base9280FTAsphalt
SKME41NMMelgar Air Base3785FTAsphalt
SKVV45NMVanguardia Airport5616FTAsphalt
SKGI46NMSantiago Vila Airport5274FTAsphalt
Z08V50NMMedina3478FTAsphalt
SKAP51NMGomez Nino Apiay Air Base8204FTAsphalt
SKQU54NMJose Celestino Mutis Airport5905FTAsphalt
SKPQ56NMGerman Olano Air Base9987FTAsphalt
  AIRPORT WEATHER
59°F | 15°C
Temperature
87%
Humidity
30" | 0mb
Pressure
6sm
Visibility
VFR
Flight Rules
SCT @ 2000ft
Initial Clouds
FAIR
Conditions
Wind Info
5/30/24 13:00Z
Updated

SKBO 301300Z 06005KT 9999 SCT020 SCT080 15/13 Q1029 NOSIG
  AIRPORT FREQUENCIES
NameFrequency
CLEARANCE126.900
GROUND121.800
TOWER118.100
APPROACH119.050
DEPARTURE121.300
IEDR (RWY 13L)109.900
IADO (RWY 13R)110.700

Powered by Virtual Airlines Manager